Time;durP1;ratioP1;P1;durP2;ratioP2;P2;SDS_P1;SDS_P2;PMS_P1;PMS_P2;Temp;Humidity;BMP_temperature;BMP_pressure;BME280_temperature;BME280_humidity;BME280_pressure;Samples;Min_cycle;Max_cycle;Signal;HPM_P1;HPM_P2
2022/01/02 20:31:58;;;;;;;;;;;13.10;94.00;;;;;;5027787;28;2264560;-47
2022/01/02 20:34:24;;;;;;;;;;;13.10;93.50;;;;;;5096426;28;20285;-49
2022/01/02 20:36:49;;;;;;;;;;;13.20;93.80;;;;;;5102573;28;19934;-46
2022/01/02 20:39:15;;;;;;;;;;;13.30;93.50;;;;;;5090268;28;20246;-46
2022/01/02 20:41:40;;;;;;;;;;;13.30;93.40;;;;;;5093670;28;19978;-44
2022/01/02 20:44:06;;;;;;;;;;;13.30;93.60;;;;;;5090509;28;19908;-48
2022/01/02 20:46:31;;;;;;;;;;;13.40;93.20;;;;;;5106152;28;19923;-47
2022/01/02 20:48:57;;;;;;;;;;;13.40;93.60;;;;;;5108599;28;19912;-47
2022/01/02 20:51:23;;;;;;;;;;;13.40;93.00;;;;;;5108497;28;19952;-46
2022/01/02 20:53:48;;;;;;;;;;;13.30;93.70;;;;;;5108666;28;19908;-45
2022/01/02 20:56:14;;;;;;;;;;;13.30;93.60;;;;;;5088436;28;19912;-47
2022/01/02 20:58:40;;;;;;;;;;;13.30;93.60;;;;;;5096558;28;19919;-46
2022/01/02 21:01:05;;;;;;;;;;;13.30;93.40;;;;;;5094222;28;19920;-47
2022/01/02 21:03:31;;;;;;;;;;;13.30;93.60;;;;;;5093944;28;19958;-48
2022/01/02 21:05:58;;;;;;;;;;;13.30;93.20;;;;;;5096408;28;19965;-46
2022/01/02 21:08:24;;;;;;;;;;;13.30;93.20;;;;;;5096226;28;19931;-45
2022/01/02 21:10:50;;;;;;;;;;;13.30;93.20;;;;;;5096412;28;20281;-45
2022/01/02 21:13:16;;;;;;;;;;;13.20;93.20;;;;;;5096648;28;19912;-47
2022/01/02 21:15:41;;;;;;;;;;;13.20;93.20;;;;;;5085950;28;20037;-49
2022/01/02 21:18:07;;;;;;;;;;;13.20;93.80;;;;;;5096527;28;19950;-47
2022/01/02 21:20:33;;;;;;;;;;;13.20;93.60;;;;;;5096438;28;19908;-45
2022/01/02 21:22:58;;;;;;;;;;;13.20;93.40;;;;;;5096638;28;20341;-47
2022/01/02 21:25:25;;;;;;;;;;;13.30;93.70;;;;;;5095694;28;20353;-46
2022/01/02 21:27:51;;;;;;;;;;;13.30;92.90;;;;;;5096254;28;19962;-50
2022/01/02 21:30:17;;;;;;;;;;;13.20;93.50;;;;;;5095462;28;19936;-51
2022/01/02 21:32:43;;;;;;;;;;;13.20;93.50;;;;;;5095953;28;19908;-48
2022/01/02 21:35:15;;;;;;;;;;;13.30;93.70;;;;;;5077788;28;19909;-48
2022/01/02 21:37:51;;;;;;;;;;;13.30;93.50;;;;;;5095994;28;19923;-47
2022/01/02 21:40:19;;;;;;;;;;;13.30;93.40;;;;;;5088423;28;19912;-50
2022/01/02 21:42:45;;;;;;;;;;;13.30;93.70;;;;;;5090256;28;20050;-49
2022/01/02 21:45:11;;;;;;;;;;;13.30;93.20;;;;;;5095246;28;19912;-50
2022/01/02 21:47:36;;;;;;;;;;;13.30;93.20;;;;;;5080246;28;19916;-49
2022/01/02 21:50:04;;;;;;;;;;;13.30;93.80;;;;;;5076229;28;19947;-47
2022/01/02 21:52:30;;;;;;;;;;;13.30;93.60;;;;;;5093930;28;19995;-46
2022/01/02 21:54:56;;;;;;;;;;;13.30;93.20;;;;;;5094040;28;19909;-47
2022/01/02 21:57:21;;;;;;;;;;;13.30;93.70;;;;;;5076398;28;19915;-47
2022/01/02 21:59:47;;;;;;;;;;;13.30;93.70;;;;;;5076177;28;19915;-49
2022/01/02 22:02:15;;;;;;;;;;;13.30;93.60;;;;;;5093920;28;20053;-46
2022/01/02 22:04:41;;;;;;;;;;;13.20;94.30;;;;;;5094256;28;19909;-47
2022/01/02 22:07:08;;;;;;;;;;;13.20;94.20;;;;;;5091655;28;19931;-45
2022/01/02 22:09:34;;;;;;;;;;;13.20;94.10;;;;;;5092172;28;19924;-49
2022/01/02 22:11:59;;;;;;;;;;;13.10;94.20;;;;;;5090665;28;19919;-51
2022/01/02 22:14:25;;;;;;;;;;;13.00;94.00;;;;;;5092324;28;19949;-50
2022/01/02 22:16:50;;;;;;;;;;;12.90;94.70;;;;;;5090663;28;20262;-47
2022/01/02 22:19:16;;;;;;;;;;;12.90;94.60;;;;;;5094132;28;19953;-50
2022/01/02 22:21:46;;;;;;;;;;;12.90;94.90;;;;;;5093993;28;19962;-47
2022/01/02 22:24:11;;;;;;;;;;;12.80;95.50;;;;;;5087535;28;19916;-46
2022/01/02 22:26:37;;;;;;;;;;;12.80;95.40;;;;;;5093527;28;20273;-50
2022/01/02 22:29:06;;;;;;;;;;;12.80;95.50;;;;;;5093255;28;19912;-46
2022/01/02 22:31:33;;;;;;;;;;;12.60;95.50;;;;;;5093671;28;19920;-48
2022/01/02 22:33:59;;;;;;;;;;;12.60;95.30;;;;;;5093392;28;20414;-46
2022/01/02 22:36:24;;;;;;;;;;;12.60;95.60;;;;;;5093529;28;19909;-45
2022/01/02 22:38:50;;;;;;;;;;;12.60;96.40;;;;;;5093750;28;20361;-47
2022/01/02 22:41:16;;;;;;;;;;;12.60;96.50;;;;;;5093299;28;19915;-46
2022/01/02 22:43:42;;;;;;;;;;;12.60;96.20;;;;;;5093381;28;19915;-50
2022/01/02 22:46:08;;;;;;;;;;;12.50;96.20;;;;;;5092723;28;19920;-46
2022/01/02 22:48:34;;;;;;;;;;;12.40;96.40;;;;;;5092768;28;19998;-46
2022/01/02 22:51:00;;;;;;;;;;;12.40;96.30;;;;;;5092984;28;19930;-47
2022/01/02 22:53:27;;;;;;;;;;;12.30;96.80;;;;;;5092940;28;19912;-48
2022/01/02 22:55:53;;;;;;;;;;;12.30;97.00;;;;;;5092927;28;19916;-46
2022/01/02 22:58:20;;;;;;;;;;;12.20;96.90;;;;;;5094949;28;19974;-47
2022/01/02 23:00:48;;;;;;;;;;;12.20;97.20;;;;;;5094894;28;19915;-50
2022/01/02 23:03:23;;;;;;;;;;;12.10;97.30;;;;;;5094567;28;19908;-47
2022/01/02 23:05:49;;;;;;;;;;;12.00;97.30;;;;;;5094853;28;19913;-51
2022/01/02 23:08:15;;;;;;;;;;;12.10;97.40;;;;;;5094346;28;19935;-46
2022/01/02 23:10:40;;;;;;;;;;;12.00;97.90;;;;;;5094324;28;20350;-46
2022/01/02 23:13:07;;;;;;;;;;;12.00;97.80;;;;;;5094329;28;19908;-50
2022/01/02 23:15:35;;;;;;;;;;;11.90;98.10;;;;;;5094477;28;19915;-45
2022/01/02 23:18:01;;;;;;;;;;;11.80;98.30;;;;;;5094619;28;19915;-45
2022/01/02 23:20:29;;;;;;;;;;;11.80;98.30;;;;;;5076215;28;19908;-46
2022/01/02 23:22:55;;;;;;;;;;;11.80;98.70;;;;;;5094191;28;20012;-48
2022/01/02 23:25:21;;;;;;;;;;;11.70;99.00;;;;;;5076355;28;19927;-47
2022/01/02 23:27:47;;;;;;;;;;;11.70;99.40;;;;;;5094072;28;19912;-47
2022/01/02 23:30:14;;;;;;;;;;;11.70;99.40;;;;;;5094195;28;20373;-46
2022/01/02 23:32:39;;;;;;;;;;;11.70;99.30;;;;;;5093839;28;20385;-48
2022/01/02 23:35:06;;;;;;;;;;;11.60;99.90;;;;;;5094325;28;19915;-50
2022/01/02 23:37:33;;;;;;;;;;;11.60;99.70;;;;;;5076298;28;20007;-45
2022/01/02 23:39:59;;;;;;;;;;;11.60;99.90;;;;;;5093945;28;19908;-49
2022/01/02 23:42:25;;;;;;;;;;;11.60;99.90;;;;;;5093912;28;19973;-53
2022/01/02 23:44:50;;;;;;;;;;;11.50;99.90;;;;;;5094191;28;19973;-46
2022/01/02 23:47:17;;;;;;;;;;;11.50;99.90;;;;;;5093803;28;20011;-46
2022/01/02 23:50:00;;;;;;;;;;;11.40;99.90;;;;;;5094095;28;20344;-46
2022/01/02 23:52:28;;;;;;;;;;;11.40;99.90;;;;;;5094145;28;19909;-47
2022/01/02 23:54:54;;;;;;;;;;;11.40;99.90;;;;;;5093808;28;20384;-45
2022/01/02 23:57:20;;;;;;;;;;;11.40;99.90;;;;;;5094313;28;19908;-49
2022/01/02 23:59:51;;;;;;;;;;;11.40;99.90;;;;;;5094382;28;19916;-46
